Time;durP1;ratioP1;P1;durP2;ratioP2;P2;SDS_P1;SDS_P2;PMS_P1;PMS_P2;Temp;Humidity;BMP_temperature;BMP_pressure;BME280_temperature;BME280_humidity;BME280_pressure;Samples;Min_cycle;Max_cycle;Signal;HPM_P1;HPM_P2
2021/09/16 00:00:12;;;;;;;5.93;0.90;;;15.50;99.90;;;;;;5092977;28;20092;-60
2021/09/16 00:02:39;;;;;;;6.70;1.08;;;15.50;99.90;;;;;;5092642;28;20054;-61
2021/09/16 00:05:06;;;;;;;7.47;1.38;;;15.60;99.90;;;;;;5092747;28;20070;-61
2021/09/16 00:07:31;;;;;;;4.63;0.88;;;15.50;99.90;;;;;;5092829;28;20059;-61
2021/09/16 00:09:57;;;;;;;5.03;0.85;;;15.50;99.90;;;;;;5092812;28;20481;-62
2021/09/16 00:12:23;;;;;;;4.45;1.15;;;15.40;99.90;;;;;;5092739;28;20370;-61
2021/09/16 00:14:48;;;;;;;8.65;1.13;;;15.40;99.90;;;;;;5092369;28;20062;-61
2021/09/16 00:17:14;;;;;;;3.90;1.00;;;15.30;99.90;;;;;;5092481;28;20047;-61
2021/09/16 00:19:40;;;;;;;7.40;1.10;;;15.30;99.90;;;;;;5092372;28;20035;-61
2021/09/16 00:22:05;;;;;;;5.03;1.23;;;15.20;99.90;;;;;;5092614;28;20047;-61
2021/09/16 00:24:31;;;;;;;6.57;0.93;;;15.20;99.90;;;;;;5092486;28;20036;-61
2021/09/16 00:26:57;;;;;;;11.82;2.75;;;15.20;99.90;;;;;;5092296;28;20071;-61
2021/09/16 00:29:22;;;;;;;3.03;1.20;;;15.10;99.90;;;;;;5092301;28;20104;-60
2021/09/16 00:31:48;;;;;;;4.88;1.27;;;15.10;99.90;;;;;;5092288;28;20040;-60
2021/09/16 00:34:13;;;;;;;4.22;1.10;;;15.10;99.90;;;;;;5092506;28;20043;-61
2021/09/16 00:36:39;;;;;;;4.15;0.90;;;15.00;99.90;;;;;;5092405;28;20124;-61
2021/09/16 00:39:05;;;;;;;5.95;1.05;;;15.00;99.90;;;;;;5092322;28;20063;-61
2021/09/16 00:41:32;;;;;;;5.72;1.25;;;14.90;99.90;;;;;;5092258;28;20114;-61
2021/09/16 00:43:58;;;;;;;6.30;1.42;;;14.90;99.90;;;;;;5091996;28;20550;-61
2021/09/16 00:46:24;;;;;;;6.88;1.33;;;14.90;99.90;;;;;;5092158;28;20036;-60
2021/09/16 00:48:50;;;;;;;5.93;1.60;;;14.90;99.90;;;;;;5092169;28;20044;-61
2021/09/16 00:51:16;;;;;;;5.93;1.02;;;14.90;99.90;;;;;;5092039;28;20036;-61
2021/09/16 00:53:42;;;;;;;3.95;1.10;;;15.00;99.90;;;;;;5081211;28;20041;-61
2021/09/16 00:56:09;;;;;;;5.75;0.85;;;14.90;99.90;;;;;;5071770;28;20041;-61
2021/09/16 00:58:39;;;;;;;6.63;1.20;;;15.00;99.90;;;;;;5071845;28;20052;-60
2021/09/16 01:01:06;;;;;;;5.75;1.23;;;15.00;99.90;;;;;;5071696;28;20099;-61
2021/09/16 01:03:32;;;;;;;3.90;0.90;;;15.00;99.90;;;;;;5071648;28;20040;-60
2021/09/16 01:05:58;;;;;;;6.38;1.05;;;15.00;99.90;;;;;;5071645;28;20032;-60
2021/09/16 01:08:24;;;;;;;3.53;0.90;;;15.00;99.90;;;;;;5071918;28;20040;-61
2021/09/16 01:10:51;;;;;;;5.88;1.30;;;15.00;99.90;;;;;;5071493;28;20037;-60
2021/09/16 01:13:18;;;;;;;3.67;0.95;;;15.10;99.90;;;;;;5071777;28;20028;-61
2021/09/16 01:15:45;;;;;;;9.93;1.55;;;15.10;99.90;;;;;;5103851;28;20514;-61
2021/09/16 01:18:12;;;;;;;10.80;1.73;;;15.10;99.90;;;;;;5071621;28;20120;-60
2021/09/16 01:20:38;;;;;;;7.10;1.58;;;15.10;99.90;;;;;;5072328;28;20082;-61
2021/09/16 01:23:04;;;;;;;7.72;1.42;;;15.10;99.90;;;;;;5075512;28;20040;-60
2021/09/16 01:25:31;;;;;;;7.00;1.40;;;15.10;99.90;;;;;;5075601;28;20120;-61
2021/09/16 01:27:58;;;;;;;6.10;1.48;;;15.10;99.90;;;;;;5075331;28;20458;-61
2021/09/16 01:30:25;;;;;;;6.32;1.23;;;15.10;99.90;;;;;;5075307;28;20087;-61
2021/09/16 01:32:54;;;;;;;7.28;1.17;;;15.10;99.90;;;;;;5075603;28;20032;-60
2021/09/16 01:35:20;;;;;;;;;;;15.20;99.90;;;;;;5075851;28;20047;-61
2021/09/16 01:37:46;;;;;;;2.60;0.90;;;15.20;99.90;;;;;;5075148;28;20286;-61
2021/09/16 01:40:12;;;;;;;4.18;1.52;;;15.20;99.90;;;;;;5075068;28;20083;-61
2021/09/16 01:42:46;;;;;;;6.88;1.20;;;15.10;99.90;;;;;;5075180;28;20046;-60
2021/09/16 01:45:20;;;;;;;5.88;1.27;;;15.20;99.90;;;;;;5075085;28;20487;-61
2021/09/16 01:47:46;;;;;;;4.75;1.35;;;15.20;99.90;;;;;;5075168;28;20043;-60
2021/09/16 01:50:13;;;;;;;7.32;1.10;;;15.20;99.90;;;;;;5074836;28;20041;-60
2021/09/16 01:52:40;;;;;;;7.82;1.40;;;15.20;99.90;;;;;;5075196;28;20072;-60
2021/09/16 01:55:06;;;;;;;9.30;1.33;;;15.20;99.90;;;;;;5074951;28;20072;-61
2021/09/16 01:57:33;;;;;;;4.57;1.25;;;15.20;99.90;;;;;;5075091;28;20420;-60
2021/09/16 01:59:59;;;;;;;4.95;1.42;;;15.20;99.90;;;;;;5074995;28;20045;-61
2021/09/16 02:02:24;;;;;;;11.63;2.15;;;15.10;99.90;;;;;;5074924;28;20124;-60
2021/09/16 02:04:50;;;;;;;6.93;1.45;;;15.10;99.90;;;;;;5074862;28;20068;-61
2021/09/16 02:07:16;;;;;;;11.55;2.03;;;15.10;99.90;;;;;;5074787;28;20111;-60
2021/09/16 02:09:41;;;;;;;4.32;1.38;;;15.10;99.90;;;;;;5074611;28;20532;-61
2021/09/16 02:12:08;;;;;;;10.73;1.90;;;15.20;99.90;;;;;;5074602;28;20036;-60
2021/09/16 02:14:33;;;;;;;5.45;2.25;;;15.10;99.90;;;;;;5074602;28;20041;-61
2021/09/16 02:16:59;;;;;;;3.92;1.10;;;15.20;99.90;;;;;;5074692;28;20036;-60
2021/09/16 02:19:24;;;;;;;9.50;1.90;;;15.20;99.90;;;;;;5073464;28;20060;-60
2021/09/16 02:21:50;;;;;;;9.13;2.17;;;15.20;99.90;;;;;;5074566;28;20044;-60
2021/09/16 02:24:16;;;;;;;4.35;1.80;;;15.20;99.90;;;;;;5074485;28;20040;-60
2021/09/16 02:26:42;;;;;;;5.47;1.67;;;15.20;99.90;;;;;;5073928;28;20426;-60
2021/09/16 02:29:07;;;;;;;4.47;1.75;;;15.20;99.90;;;;;;5074495;28;20040;-60
2021/09/16 02:31:33;;;;;;;8.65;2.05;;;15.30;99.90;;;;;;5073967;28;20048;-60
2021/09/16 02:33:58;;;;;;;6.65;1.90;;;15.30;99.90;;;;;;5073385;28;20029;-61
2021/09/16 02:36:25;;;;;;;8.93;2.67;;;15.30;99.90;;;;;;5074274;28;20044;-60
2021/09/16 02:38:51;;;;;;;8.68;2.90;;;15.40;99.90;;;;;;5074188;28;20363;-61
2021/09/16 02:41:17;;;;;;;8.05;2.10;;;15.50;99.90;;;;;;5074353;28;20127;-61
2021/09/16 02:43:43;;;;;;;8.88;2.35;;;15.40;99.90;;;;;;5074304;28;20041;-61
2021/09/16 02:46:08;;;;;;;6.07;2.40;;;15.50;99.90;;;;;;5074173;28;20044;-61
2021/09/16 02:48:34;;;;;;;9.25;2.22;;;15.50;99.90;;;;;;5074029;28;20091;-60
2021/09/16 02:51:00;;;;;;;4.55;2.15;;;15.50;99.90;;;;;;5072483;28;20036;-61
2021/09/16 02:53:25;;;;;;;8.52;2.55;;;15.50;99.90;;;;;;5073881;28;20041;-61
2021/09/16 02:55:51;;;;;;;6.55;2.70;;;15.60;99.90;;;;;;5073804;28;20070;-61
2021/09/16 02:58:16;;;;;;;11.23;2.97;;;15.60;99.90;;;;;;5073976;28;20451;-60
2021/09/16 03:00:42;;;;;;;5.72;2.90;;;15.60;99.90;;;;;;5073962;28;20398;-60
2021/09/16 03:03:09;;;;;;;8.88;2.78;;;15.60;99.90;;;;;;5072729;28;20524;-60
2021/09/16 03:05:34;;;;;;;6.85;3.13;;;15.60;99.90;;;;;;5073802;28;20455;-60
2021/09/16 03:08:00;;;;;;;7.60;3.33;;;15.70;99.90;;;;;;5073601;28;20115;-61
2021/09/16 03:10:26;;;;;;;6.75;3.05;;;15.70;99.90;;;;;;5073336;28;20109;-60
2021/09/16 03:12:52;;;;;;;5.90;2.80;;;15.70;99.90;;;;;;5073458;28;20036;-60
2021/09/16 03:15:18;;;;;;;8.57;3.40;;;15.70;99.90;;;;;;5073531;28;20040;-60
2021/09/16 03:17:44;;;;;;;5.38;3.10;;;15.70;99.90;;;;;;5073502;28;20041;-61
2021/09/16 03:20:11;;;;;;;7.32;3.15;;;15.70;99.90;;;;;;5073329;28;20067;-60
2021/09/16 03:22:37;;;;;;;6.45;2.97;;;15.70;99.90;;;;;;5073469;28;20424;-61
2021/09/16 03:25:04;;;;;;;14.35;3.80;;;15.80;99.90;;;;;;5073324;28;20051;-60
2021/09/16 03:27:30;;;;;;;7.30;3.78;;;15.70;99.90;;;;;;5073225;28;20064;-61
2021/09/16 03:29:56;;;;;;;6.07;4.18;;;15.80;99.90;;;;;;5073603;28;20048;-60
2021/09/16 03:32:21;;;;;;;10.43;3.42;;;15.70;99.90;;;;;;5073069;28;20040;-59
2021/09/16 03:34:47;;;;;;;7.93;3.05;;;15.70;99.90;;;;;;5072833;28;20043;-60
2021/09/16 03:37:13;;;;;;;5.25;3.05;;;15.70;99.90;;;;;;5073062;28;20037;-61
2021/09/16 03:39:39;;;;;;;11.00;3.58;;;15.70;99.90;;;;;;5073062;28;20460;-56
2021/09/16 03:42:05;;;;;;;8.00;3.40;;;15.80;99.90;;;;;;5073127;28;20175;-57
2021/09/16 03:44:30;;;;;;;8.05;3.97;;;15.70;99.90;;;;;;5072858;28;20086;-57
2021/09/16 03:46:56;;;;;;;8.20;4.05;;;15.70;99.90;;;;;;5073064;28;20137;-56
2021/09/16 03:49:22;;;;;;;8.45;3.80;;;15.70;99.90;;;;;;5072715;28;20052;-57
2021/09/16 03:51:48;;;;;;;9.65;4.00;;;15.70;99.90;;;;;;5072572;28;20048;-56
2021/09/16 03:54:13;;;;;;;12.43;4.32;;;15.60;99.90;;;;;;5072612;28;20040;-57
2021/09/16 03:56:39;;;;;;;20.65;5.05;;;15.60;99.90;;;;;;5072604;28;20029;-56
2021/09/16 03:59:05;;;;;;;7.68;4.32;;;15.60;99.90;;;;;;5072786;28;20040;-56
2021/09/16 04:01:30;;;;;;;12.13;4.30;;;15.60;99.90;;;;;;5072782;28;20063;-57
2021/09/16 04:03:56;;;;;;;8.93;4.18;;;15.50;99.90;;;;;;5072460;28;20093;-57
2021/09/16 04:06:21;;;;;;;9.68;4.65;;;15.50;99.90;;;;;;5072564;28;20041;-57
2021/09/16 04:08:47;;;;;;;8.52;4.28;;;15.50;99.90;;;;;;5072698;28;20135;-57
2021/09/16 04:11:13;;;;;;;9.23;4.68;;;15.50;99.90;;;;;;5072313;28;20044;-57
2021/09/16 04:13:38;;;;;;;10.43;5.68;;;15.50;99.90;;;;;;5072366;28;20083;-57
2021/09/16 04:16:04;;;;;;;11.25;4.78;;;15.50;99.90;;;;;;5072554;28;20089;-57
2021/09/16 04:18:30;;;;;;;12.05;4.45;;;15.50;99.90;;;;;;5072344;28;20090;-57
2021/09/16 04:20:56;;;;;;;8.25;4.60;;;15.50;99.90;;;;;;5072378;28;20102;-57
2021/09/16 04:23:22;;;;;;;14.32;4.57;;;15.60;99.90;;;;;;5072150;28;20045;-56
2021/09/16 04:25:47;;;;;;;10.45;4.05;;;15.60;99.90;;;;;;5071933;28;20040;-56
2021/09/16 04:28:13;;;;;;;12.40;5.45;;;15.60;99.90;;;;;;5072443;28;20094;-57
2021/09/16 04:30:39;;;;;;;11.40;4.45;;;15.70;99.90;;;;;;5072035;28;20491;-56
2021/09/16 04:33:04;;;;;;;13.32;4.78;;;15.70;99.90;;;;;;5072220;28;20123;-57
2021/09/16 04:35:30;;;;;;;9.15;4.32;;;15.70;99.90;;;;;;5072084;28;20035;-56
2021/09/16 04:37:55;;;;;;;13.20;5.47;;;15.70;99.90;;;;;;5071789;28;20111;-57
2021/09/16 04:40:21;;;;;;;7.50;4.65;;;15.70;99.90;;;;;;5072243;28;20064;-57
2021/09/16 04:42:47;;;;;;;14.43;5.90;;;15.70;99.90;;;;;;5070960;28;20454;-56
2021/09/16 04:45:13;;;;;;;11.60;5.22;;;15.70;99.90;;;;;;5071016;28;20487;-57
2021/09/16 04:47:42;;;;;;;12.15;5.57;;;15.70;99.90;;;;;;5072162;28;20051;-57
2021/09/16 04:50:09;;;;;;;13.45;5.35;;;15.80;99.90;;;;;;5071718;28;20086;-60
2021/09/16 04:52:35;;;;;;;16.25;5.35;;;15.70;99.90;;;;;;5071879;28;20040;-60
2021/09/16 04:55:01;;;;;;;15.18;5.45;;;15.70;99.90;;;;;;5078102;28;20051;-61
2021/09/16 04:57:27;;;;;;;14.60;5.55;;;15.70;99.90;;;;;;5085995;28;20042;-60
2021/09/16 04:59:54;;;;;;;13.50;5.50;;;15.70;99.90;;;;;;5092235;28;20042;-62
2021/09/16 05:02:20;;;;;;;10.10;5.32;;;15.80;99.90;;;;;;5092402;28;20036;-61
2021/09/16 05:04:45;;;;;;;17.92;5.60;;;15.70;99.90;;;;;;5091999;28;20032;-61
2021/09/16 05:07:11;;;;;;;11.48;5.88;;;15.70;99.90;;;;;;5079525;28;20040;-61
2021/09/16 05:09:37;;;;;;;9.63;4.93;;;15.70;99.90;;;;;;5071974;28;20093;-60
2021/09/16 05:12:04;;;;;;;15.60;5.43;;;15.80;99.90;;;;;;5071627;28;20051;-60
2021/09/16 05:14:29;;;;;;;12.38;5.60;;;15.80;99.90;;;;;;5071798;28;20090;-61
2021/09/16 05:16:55;;;;;;;16.30;4.80;;;15.80;99.90;;;;;;5071545;28;20032;-61
2021/09/16 05:19:21;;;;;;;15.48;6.18;;;15.80;99.90;;;;;;5071615;28;20044;-61
2021/09/16 05:21:47;;;;;;;15.48;4.85;;;15.80;99.90;;;;;;5071240;28;20076;-61
2021/09/16 05:24:19;;;;;;;14.77;4.93;;;15.80;99.90;;;;;;5086898;28;20107;-60
2021/09/16 05:26:45;;;;;;;15.50;4.95;;;15.80;99.90;;;;;;5091354;28;20062;-60
2021/09/16 05:29:12;;;;;;;10.88;4.47;;;15.80;99.90;;;;;;5082594;28;20370;-60
2021/09/16 05:31:37;;;;;;;12.70;5.03;;;15.80;99.90;;;;;;5090431;28;20044;-60
2021/09/16 05:34:03;;;;;;;13.23;5.15;;;15.80;99.90;;;;;;5089033;28;20119;-60
2021/09/16 05:36:29;;;;;;;16.20;5.63;;;15.80;99.90;;;;;;5081972;28;20051;-60
2021/09/16 05:38:55;;;;;;;9.48;4.35;;;15.80;99.90;;;;;;5091785;28;20032;-60
2021/09/16 05:41:21;;;;;;;11.75;4.40;;;15.80;99.90;;;;;;5091846;28;20118;-57
2021/09/16 05:43:47;;;;;;;15.63;4.90;;;15.80;99.90;;;;;;5091599;28;20048;-56
2021/09/16 05:46:13;;;;;;;12.73;4.45;;;15.90;99.90;;;;;;5091716;28;20367;-57
2021/09/16 05:48:39;;;;;;;9.48;4.97;;;15.90;99.90;;;;;;5091638;28;20044;-56
2021/09/16 05:51:05;;;;;;;23.60;4.78;;;15.90;99.90;;;;;;5084741;28;20052;-57
2021/09/16 05:53:31;;;;;;;11.75;3.78;;;15.90;99.90;;;;;;5071535;28;20505;-57
2021/09/16 05:55:57;;;;;;;12.77;4.07;;;15.90;99.90;;;;;;5071519;28;20047;-56
2021/09/16 05:58:22;;;;;;;15.32;5.07;;;15.90;99.90;;;;;;5070201;28;20071;-56
2021/09/16 06:00:48;;;;;;;15.52;3.97;;;15.90;99.90;;;;;;5071561;28;20513;-56
2021/09/16 06:03:14;;;;;;;13.82;4.55;;;15.90;99.90;;;;;;5075144;28;20044;-56
2021/09/16 06:05:40;;;;;;;12.35;4.32;;;15.90;99.90;;;;;;5089303;28;20477;-57
2021/09/16 06:08:05;;;;;;;14.82;3.92;;;15.90;99.90;;;;;;5094455;28;20177;-56
2021/09/16 06:10:31;;;;;;;14.60;4.50;;;15.90;99.90;;;;;;5094996;28;20040;-57
2021/09/16 06:12:57;;;;;;;15.70;4.50;;;15.90;99.90;;;;;;5095296;28;20040;-56
2021/09/16 06:15:23;;;;;;;13.40;4.88;;;15.90;99.90;;;;;;5075480;28;20043;-56
2021/09/16 06:17:49;;;;;;;11.75;3.85;;;15.90;99.90;;;;;;5074501;28;20051;-56
2021/09/16 06:20:15;;;;;;;10.55;3.58;;;16.00;99.90;;;;;;5083861;28;20385;-57
2021/09/16 06:22:45;;;;;;;14.10;4.45;;;16.00;99.90;;;;;;5094918;28;20032;-56
2021/09/16 06:25:13;;;;;;;11.68;4.07;;;16.00;99.90;;;;;;5094468;28;20040;-57
2021/09/16 06:27:39;;;;;;;14.40;3.95;;;16.00;99.90;;;;;;5093458;28;20486;-56
2021/09/16 06:30:06;;;;;;;12.13;4.28;;;16.00;99.90;;;;;;5094314;28;20135;-56
2021/09/16 06:32:33;;;;;;;16.95;5.43;;;16.10;99.90;;;;;;5094532;28;20363;-56
2021/09/16 06:35:00;;;;;;;12.00;4.22;;;16.10;99.90;;;;;;5094209;28;20489;-57
2021/09/16 06:37:26;;;;;;;15.25;4.40;;;16.10;99.90;;;;;;5094481;28;20067;-56
2021/09/16 06:39:51;;;;;;;11.40;4.10;;;16.10;99.90;;;;;;5094414;28;20068;-57
2021/09/16 06:42:17;;;;;;;11.95;3.63;;;16.10;99.90;;;;;;5094075;28;20036;-56
2021/09/16 06:44:43;;;;;;;12.98;4.10;;;16.10;99.90;;;;;;5094133;28;20036;-56
2021/09/16 06:47:09;;;;;;;14.93;3.90;;;16.10;99.90;;;;;;5094130;28;20078;-56
2021/09/16 06:49:40;;;;;;;14.35;4.32;;;16.10;99.90;;;;;;5094243;28;20035;-56
2021/09/16 06:52:06;;;;;;;10.05;4.03;;;16.10;99.90;;;;;;5093973;28;20047;-56
2021/09/16 06:54:31;;;;;;;14.77;4.97;;;16.10;99.90;;;;;;5094059;28;20032;-57
2021/09/16 06:56:57;;;;;;;11.07;3.92;;;16.10;99.90;;;;;;5094224;28;20385;-57
2021/09/16 06:59:23;;;;;;;10.52;4.15;;;16.20;99.90;;;;;;5093851;28;20036;-57
2021/09/16 07:01:49;;;;;;;10.00;3.53;;;16.10;99.90;;;;;;5093702;28;20082;-56
2021/09/16 07:04:14;;;;;;;20.75;4.55;;;16.10;99.90;;;;;;5094073;28;20044;-56
2021/09/16 07:06:40;;;;;;;13.48;4.68;;;16.20;99.90;;;;;;5093785;28;20389;-56
2021/09/16 07:09:06;;;;;;;24.90;4.57;;;16.20;99.90;;;;;;5093782;28;20040;-57
2021/09/16 07:11:32;;;;;;;12.10;3.80;;;16.20;99.90;;;;;;5093741;28;20032;-57
2021/09/16 07:13:58;;;;;;;9.60;3.40;;;16.20;99.90;;;;;;5093632;28;20040;-56
2021/09/16 07:16:24;;;;;;;12.80;3.97;;;16.20;99.90;;;;;;5093567;28;20112;-56
2021/09/16 07:18:49;;;;;;;9.25;4.18;;;16.10;99.90;;;;;;5093398;28;20031;-56
2021/09/16 07:21:15;;;;;;;14.25;3.90;;;16.20;99.90;;;;;;5093434;28;20032;-57
2021/09/16 07:23:41;;;;;;;11.60;3.17;;;16.20;99.90;;;;;;5093386;28;20075;-56
2021/09/16 07:26:07;;;;;;;9.90;3.63;;;16.20;99.90;;;;;;5092237;28;20086;-56
2021/09/16 07:28:35;;;;;;;7.05;3.53;;;16.20;99.90;;;;;;5093406;28;20043;-56
2021/09/16 07:31:02;;;;;;;6.32;3.30;;;16.20;99.90;;;;;;5093100;28;20083;-56
2021/09/16 07:33:29;;;;;;;12.32;4.32;;;16.20;99.90;;;;;;5093547;28;20048;-56
2021/09/16 07:35:55;;;;;;;10.70;4.65;;;16.20;99.90;;;;;;5093323;28;20110;-56
2021/09/16 07:38:21;;;;;;;11.90;4.05;;;16.20;99.90;;;;;;5093053;28;20032;-56
2021/09/16 07:40:47;;;;;;;13.70;5.20;;;16.20;99.90;;;;;;5093169;28;20047;-56
2021/09/16 07:43:12;;;;;;;15.68;4.95;;;16.20;99.90;;;;;;5093022;28;20539;-56
2021/09/16 07:45:38;;;;;;;16.42;4.93;;;16.20;99.90;;;;;;5092030;28;20040;-56
2021/09/16 07:48:04;;;;;;;12.32;4.28;;;16.20;99.90;;;;;;5093125;28;20056;-56
2021/09/16 07:50:30;;;;;;;14.38;4.20;;;16.20;99.90;;;;;;5092943;28;20102;-57
2021/09/16 07:52:56;;;;;;;14.32;4.30;;;16.20;99.90;;;;;;5092903;28;20039;-56
2021/09/16 07:55:22;;;;;;;13.68;5.07;;;16.30;99.90;;;;;;5092878;28;20436;-56
2021/09/16 07:57:48;;;;;;;12.23;4.18;;;16.30;99.90;;;;;;5092806;28;20055;-56
2021/09/16 08:00:14;;;;;;;11.32;4.05;;;16.30;99.90;;;;;;5092631;28;20036;-57
2021/09/16 08:02:48;;;;;;;13.63;3.60;;;16.40;99.90;;;;;;5092735;28;20096;-56
2021/09/16 08:05:15;;;;;;;11.32;4.03;;;16.40;99.90;;;;;;5092741;28;20040;-56
2021/09/16 08:07:41;;;;;;;13.07;3.60;;;16.40;99.90;;;;;;5092425;28;20051;-56
2021/09/16 08:10:08;;;;;;;10.20;3.67;;;16.50;99.90;;;;;;5092302;28;20477;-56
2021/09/16 08:12:33;;;;;;;10.27;4.00;;;16.50;99.90;;;;;;5092401;28;20047;-57
2021/09/16 08:14:59;;;;;;;14.20;3.65;;;16.60;99.90;;;;;;5092694;28;20028;-56
2021/09/16 08:17:25;;;;;;;12.45;3.40;;;16.60;99.90;;;;;;5092316;28;20089;-56
2021/09/16 08:19:52;;;;;;;9.60;3.13;;;16.60;99.90;;;;;;5092551;28;20040;-56
2021/09/16 08:22:18;;;;;;;9.02;3.53;;;16.60;99.90;;;;;;5092493;28;20110;-56
2021/09/16 08:24:43;;;;;;;17.65;4.20;;;16.60;99.90;;;;;;5092327;28;20110;-56
2021/09/16 08:27:09;;;;;;;8.65;3.65;;;16.60;99.90;;;;;;5091916;28;20516;-56
2021/09/16 08:29:35;;;;;;;8.63;3.03;;;16.70;99.90;;;;;;5092058;28;20040;-56
2021/09/16 08:32:02;;;;;;;15.23;3.63;;;16.70;99.90;;;;;;5091496;28;20040;-56
2021/09/16 08:34:29;;;;;;;7.95;2.90;;;16.70;99.90;;;;;;5092403;28;20036;-56
2021/09/16 08:36:55;;;;;;;15.27;3.33;;;16.70;99.90;;;;;;5092173;28;20044;-56
2021/09/16 08:39:22;;;;;;;12.75;3.33;;;16.70;99.90;;;;;;5092156;28;20504;-56
2021/09/16 08:41:48;;;;;;;12.82;3.15;;;16.80;99.90;;;;;;5092125;28;20124;-56
2021/09/16 08:44:16;;;;;;;8.45;3.30;;;16.80;99.90;;;;;;5092251;28;20048;-56
2021/09/16 08:46:43;;;;;;;13.55;3.55;;;16.80;99.90;;;;;;5092370;28;20114;-56
2021/09/16 08:49:09;;;;;;;9.80;2.72;;;16.80;99.90;;;;;;5092300;28;20040;-56
2021/09/16 08:51:38;;;;;;;13.35;3.58;;;16.80;99.90;;;;;;5092085;28;20557;-56
2021/09/16 08:54:04;;;;;;;10.35;2.80;;;16.80;99.90;;;;;;5091779;28;20044;-57
2021/09/16 08:56:31;;;;;;;8.38;2.40;;;16.90;99.90;;;;;;5092071;28;20047;-56
2021/09/16 08:59:03;;;;;;;10.68;2.80;;;16.90;99.90;;;;;;5092197;28;20040;-56
2021/09/16 09:01:28;;;;;;;8.30;2.88;;;16.90;99.90;;;;;;5092248;28;20393;-56
2021/09/16 09:03:54;;;;;;;7.38;2.53;;;17.00;99.90;;;;;;5091918;28;20127;-56
2021/09/16 09:06:26;;;;;;;10.35;2.30;;;17.00;99.90;;;;;;5091771;28;20040;-57
2021/09/16 09:09:25;;;;;;;12.95;3.05;;;17.00;99.90;;;;;;5091727;28;20036;-56
2021/09/16 09:11:54;;;;;;;8.35;2.42;;;17.10;99.90;;;;;;5091392;28;20148;-56
2021/09/16 09:14:20;;;;;;;;;;;17.10;99.90;;;;;;5092493;28;20078;-56
2021/09/16 09:16:46;;;;;;;13.63;2.63;;;17.20;99.90;;;;;;5091960;28;20334;-56
2021/09/16 09:19:17;;;;;;;9.32;2.70;;;17.30;99.90;;;;;;5091675;28;20043;-57
2021/09/16 09:21:43;;;;;;;6.72;1.92;;;17.50;99.90;;;;;;5091694;28;20040;-57
2021/09/16 09:24:09;;;;;;;7.07;2.03;;;17.60;99.90;;;;;;5091910;28;20040;-57
2021/09/16 09:26:37;;;;;;;8.15;2.00;;;17.70;99.90;;;;;;5091745;28;20111;-56
2021/09/16 09:29:09;;;;;;;6.03;1.47;;;17.70;99.90;;;;;;5091872;28;20097;-56
2021/09/16 09:31:39;;;;;;;6.53;2.08;;;17.60;99.90;;;;;;5091415;28;20119;-56
2021/09/16 09:34:24;;;;;;;4.68;2.00;;;17.60;99.90;;;;;;5091558;28;20040;-56
2021/09/16 09:36:51;;;;;;;9.25;1.77;;;17.50;99.90;;;;;;5091568;28;20043;-57
2021/09/16 09:39:25;;;;;;;7.65;2.08;;;17.40;99.90;;;;;;5091381;28;20028;-57
2021/09/16 09:41:52;;;;;;;4.32;1.80;;;17.20;99.90;;;;;;5092654;28;20402;-56
2021/09/16 09:44:17;;;;;;;11.38;2.90;;;17.10;99.90;;;;;;5095232;28;20050;-57
2021/09/16 09:46:52;;;;;;;12.38;2.20;;;17.00;99.90;;;;;;5095270;28;20043;-57
2021/09/16 09:49:22;;;;;;;4.93;2.22;;;17.00;99.90;;;;;;5095566;28;20040;-56
2021/09/16 09:51:57;;;;;;;6.63;2.20;;;16.90;99.90;;;;;;5094014;28;20047;-56
2021/09/16 09:54:32;;;;;;;8.23;3.00;;;16.80;99.90;;;;;;5095262;28;20075;-56
2021/09/16 09:57:04;;;;;;;5.90;2.75;;;16.70;99.90;;;;;;5095132;28;20089;-56
2021/09/16 09:59:56;;;;;;;7.45;3.08;;;16.70;99.90;;;;;;5095666;28;20078;-57
2021/09/16 10:02:24;;;;;;;6.05;2.85;;;16.70;99.90;;;;;;5094911;28;20119;-55
2021/09/16 10:04:50;;;;;;;6.25;2.33;;;16.70;99.90;;;;;;5095005;28;20036;-56
2021/09/16 10:07:49;;;;;;;9.18;3.63;;;16.60;99.90;;;;;;5094769;28;20107;-56
2021/09/16 10:10:15;;;;;;;6.30;2.08;;;16.60;99.90;;;;;;5072230;28;20135;-57
2021/09/16 10:12:43;;;;;;;4.53;2.00;;;16.60;99.90;;;;;;5072252;28;20064;-56
2021/09/16 10:15:13;;;;;;;7.77;2.20;;;16.60;99.90;;;;;;5055820;28;20051;-57
2021/09/16 10:17:39;;;;;;;3.47;1.88;;;16.70;99.90;;;;;;5072222;28;20426;-56
2021/09/16 10:20:11;;;;;;;7.78;2.33;;;16.70;99.90;;;;;;5072183;28;20049;-56
2021/09/16 10:22:38;;;;;;;8.52;2.55;;;16.80;99.90;;;;;;5072099;28;20041;-56
2021/09/16 10:25:06;;;;;;;10.50;2.20;;;16.90;99.90;;;;;;5072099;28;20613;-56
2021/09/16 10:27:33;;;;;;;9.55;2.08;;;16.90;99.90;;;;;;5055399;28;20525;-56
2021/09/16 10:30:20;;;;;;;10.13;2.65;;;16.90;99.90;;;;;;5071893;28;20109;-56
2021/09/16 10:33:00;;;;;;;6.38;2.00;;;16.90;99.90;;;;;;5071892;28;20121;-56
2021/09/16 10:35:26;;;;;;;6.10;2.40;;;16.90;99.90;;;;;;5072005;28;20154;-56
2021/09/16 10:37:53;;;;;;;6.53;2.50;;;17.00;99.90;;;;;;5071886;28;20052;-56
2021/09/16 10:40:30;;;;;;;6.78;2.40;;;17.00;99.90;;;;;;5071750;28;20048;-56
2021/09/16 10:43:02;;;;;;;6.72;2.63;;;17.10;99.90;;;;;;5071779;28;20054;-56
2021/09/16 10:45:27;;;;;;;6.45;2.90;;;17.20;99.90;;;;;;5079743;28;20401;-56
2021/09/16 10:48:15;;;;;;;9.52;2.95;;;17.30;99.90;;;;;;5094188;28;20044;-56
2021/09/16 10:50:42;;;;;;;8.48;3.80;;;17.30;99.90;;;;;;5094069;28;20036;-56
2021/09/16 10:53:33;;;;;;;4.93;2.22;;;17.30;99.90;;;;;;5093143;28;20449;-56
2021/09/16 10:55:59;;;;;;;9.93;4.13;;;17.30;99.90;;;;;;5093901;28;20393;-56
2021/09/16 10:58:26;;;;;;;6.80;3.90;;;17.30;99.90;;;;;;5092634;28;20044;-56
2021/09/16 11:00:52;;;;;;;10.20;3.40;;;17.40;99.90;;;;;;5093967;28;20048;-56
2021/09/16 11:03:17;;;;;;;13.30;5.05;;;17.40;99.90;;;;;;5093729;28;20032;-56
2021/09/16 11:05:50;;;;;;;10.38;3.50;;;17.50;99.90;;;;;;5093978;28;20046;-57
2021/09/16 11:08:18;;;;;;;8.40;2.50;;;17.50;99.90;;;;;;5094004;28;20040;-56
2021/09/16 11:10:44;;;;;;;10.00;4.00;;;17.50;99.90;;;;;;5093662;28;20036;-56
2021/09/16 11:13:33;;;;;;;10.18;4.80;;;17.60;99.90;;;;;;5093633;28;20036;-56
2021/09/16 11:15:59;;;;;;;9.60;4.60;;;17.60;99.90;;;;;;5093585;28;20036;-56
2021/09/16 11:18:26;;;;;;;9.60;4.07;;;17.60;99.90;;;;;;5092415;28;20354;-57
2021/09/16 11:21:00;;;;;;;7.55;3.03;;;17.60;99.90;;;;;;5093527;28;20047;-56
2021/09/16 11:23:41;;;;;;;10.70;3.95;;;17.60;99.90;;;;;;5093485;28;20398;-56
2021/09/16 11:26:13;;;;;;;11.13;5.40;;;17.50;99.90;;;;;;5093581;28;20059;-57
2021/09/16 11:28:39;;;;;;;10.82;3.50;;;17.60;99.90;;;;;;5093437;28;20390;-56
2021/09/16 11:31:05;;;;;;;7.55;2.95;;;17.60;99.90;;;;;;5093404;28;20043;-56
2021/09/16 11:33:31;;;;;;;10.07;2.92;;;17.60;99.90;;;;;;5093206;28;20549;-56
2021/09/16 11:36:07;;;;;;;7.93;2.72;;;17.70;99.90;;;;;;5093306;28;20115;-56
2021/09/16 11:38:33;;;;;;;7.78;2.50;;;17.80;99.90;;;;;;5093193;28;20032;-56
2021/09/16 11:41:03;;;;;;;8.27;2.20;;;18.00;99.90;;;;;;5093316;28;20067;-56
2021/09/16 11:43:29;;;;;;;4.90;2.72;;;18.10;99.90;;;;;;5093232;28;20054;-56
2021/09/16 11:45:55;;;;;;;6.05;3.13;;;18.20;99.90;;;;;;5092935;28;20119;-56
2021/09/16 11:48:25;;;;;;;8.63;3.45;;;18.20;99.90;;;;;;5093234;28;20043;-56
2021/09/16 11:51:03;;;;;;;8.57;2.53;;;18.30;99.90;;;;;;5091524;28;20090;-56
2021/09/16 11:53:34;;;;;;;5.82;2.15;;;18.30;99.90;;;;;;5092898;28;20058;-56
2021/09/16 11:56:03;;;;;;;6.45;2.03;;;18.30;99.90;;;;;;5093009;28;20115;-56
2021/09/16 11:58:36;;;;;;;;;;;18.20;99.90;;;;;;5093470;28;20461;-56
2021/09/16 12:01:04;;;;;;;7.43;2.22;;;18.20;99.90;;;;;;5092754;28;19931;-56
2021/09/16 12:03:32;;;;;;;;;;;18.20;99.90;;;;;;5093307;28;20401;-56
2021/09/16 12:06:01;;;;;;;8.48;1.88;;;18.30;99.90;;;;;;5092374;28;19963;-56
2021/09/16 12:08:59;;;;;;;6.63;2.00;;;18.40;99.90;;;;;;5092491;28;20512;-56
2021/09/16 12:11:27;;;;;;;7.97;1.55;;;18.40;99.90;;;;;;5070177;28;20059;-57
2021/09/16 12:13:57;;;;;;;6.97;1.93;;;18.50;99.90;;;;;;5070357;28;20465;-56
2021/09/16 12:16:25;;;;;;;5.82;2.00;;;18.40;99.90;;;;;;5069943;28;20290;-57
2021/09/16 12:19:10;;;;;;;6.55;2.03;;;18.40;99.90;;;;;;5070036;28;20037;-56
2021/09/16 12:21:39;;;;;;;6.40;2.00;;;18.50;99.90;;;;;;5069936;28;20105;-56
2021/09/16 12:24:10;;;;;;;3.33;1.90;;;18.60;99.90;;;;;;5069968;28;20127;-57
2021/09/16 12:26:39;;;;;;;5.15;1.60;;;18.80;99.90;;;;;;5069679;28;20056;-56
2021/09/16 12:29:10;;;;;;;6.60;1.63;;;19.00;99.90;;;;;;5069881;28;20173;-57
2021/09/16 12:31:37;;;;;;;6.78;1.63;;;19.00;99.90;;;;;;5069627;28;20159;-56
2021/09/16 12:34:12;;;;;;;5.30;1.80;;;19.20;99.90;;;;;;5069847;28;20110;-56
2021/09/16 12:36:50;;;;;;;4.43;1.30;;;19.10;99.90;;;;;;5070093;28;20585;-57
2021/09/16 12:39:15;;;;;;;2.55;1.42;;;19.00;99.90;;;;;;5053022;28;20040;-56
2021/09/16 12:41:58;;;;;;;5.30;1.92;;;19.00;99.90;;;;;;5069687;28;20121;-57
2021/09/16 12:44:36;;;;;;;4.95;1.40;;;19.20;99.90;;;;;;5069572;28;20044;-56